Terminal Aerodrome Forecast
Issued by NWS

Home | Current Version | Previous Version | Text Only | Print | Product List | Glossary On
Versions: 1 2 3 4 5 6 7 8 9 10 11 12 13 14 15 16 17 18 19 20 21
000
FTAK31 PANC 302331
TAFADQ
TAF
PADQ 302331Z 0100/0124 05007KT P6SM -SHRA BKN015 OVC025
      TEMPO 0100/0102 29015G25KT BKN025 OVC035=

USA.gov is the U.S. government's official web portal to all federal, state and local government web resources and services.